createdAt,value
2023-01-25T00:00:48.586Z,16.23
2023-01-25T00:03:16.503Z,15.07
2023-01-25T00:05:47.235Z,13.18
2023-01-25T00:08:14.943Z,15.35
2023-01-25T00:10:42.697Z,14.10
2023-01-25T00:13:11.883Z,14.20
2023-01-25T00:15:39.565Z,13.75
2023-01-25T00:18:07.369Z,13.82
2023-01-25T00:20:35.131Z,13.55
2023-01-25T00:23:02.835Z,14.70
2023-01-25T00:25:30.569Z,15.30
2023-01-25T00:27:58.249Z,15.27
2023-01-25T00:34:47.143Z,14.38
2023-01-25T00:37:21.543Z,15.80
2023-01-25T00:39:49.265Z,13.68
2023-01-25T00:42:19.319Z,17.83
2023-01-25T00:44:48.100Z,15.20
2023-01-25T00:47:16.298Z,15.43
2023-01-25T00:49:46.144Z,15.57
2023-01-25T00:52:14.686Z,16.77
2023-01-25T00:54:42.433Z,15.55
2023-01-25T00:57:10.936Z,18.30
2023-01-25T00:59:38.699Z,17.55
2023-01-25T01:02:06.472Z,17.77
2023-01-25T01:04:34.296Z,14.18
2023-01-25T01:07:04.239Z,11.38
2023-01-25T01:09:31.918Z,14.00
2023-01-25T01:11:59.564Z,15.15
2023-01-25T01:14:29.233Z,13.43
2023-01-25T01:16:58.061Z,14.13
2023-01-25T01:19:26.238Z,13.50
2023-01-25T01:21:53.873Z,14.70
2023-01-25T01:24:24.569Z,14.52
2023-01-25T01:26:52.346Z,14.88
2023-01-25T01:29:20.018Z,18.23
2023-01-25T01:31:51.176Z,15.00
2023-01-25T01:34:23.114Z,14.35
2023-01-25T01:36:51.140Z,14.00
2023-01-25T01:39:18.847Z,14.93
2023-01-25T01:41:47.880Z,14.15
2023-01-25T01:44:19.039Z,18.30
2023-01-25T01:46:55.939Z,17.35
2023-01-25T01:49:30.018Z,15.17
2023-01-25T01:52:13.701Z,15.10
2023-01-25T01:54:48.043Z,14.23
2023-01-25T01:57:20.925Z,16.20
2023-01-25T01:59:54.318Z,14.18
2023-01-25T02:02:26.101Z,17.33
2023-01-25T02:05:07.303Z,17.92
2023-01-25T02:07:37.399Z,15.70
2023-01-25T02:10:07.032Z,17.83
2023-01-25T02:12:37.808Z,16.45
2023-01-25T02:15:10.445Z,13.95
2023-01-25T02:17:44.053Z,15.07
2023-01-25T02:20:25.072Z,14.65
2023-01-25T02:23:00.005Z,16.00
2023-01-25T02:25:30.031Z,14.32
2023-01-25T02:28:03.392Z,18.35
2023-01-25T02:30:32.195Z,14.15
2023-01-25T02:33:00.001Z,15.15
2023-01-25T02:35:39.584Z,14.52
2023-01-25T02:38:08.318Z,13.98
2023-01-25T02:40:46.943Z,17.65
2023-01-25T02:43:16.542Z,12.32
2023-01-25T02:46:18.762Z,14.77
2023-01-25T02:49:01.152Z,16.27
2023-01-25T02:51:34.797Z,15.80
2023-01-25T02:54:04.772Z,14.32
2023-01-25T02:56:34.058Z,14.38
2023-01-25T02:59:05.460Z,15.50
2023-01-25T03:01:34.977Z,15.30
2023-01-25T03:04:03.440Z,14.88
2023-01-25T03:06:31.170Z,11.45
2023-01-25T03:08:59.113Z,14.65
2023-01-25T03:11:27.571Z,12.43
2023-01-25T03:13:59.579Z,12.75
2023-01-25T03:16:27.553Z,13.85
2023-01-25T03:18:56.935Z,12.25
2023-01-25T03:21:25.839Z,13.82
2023-01-25T03:23:57.791Z,17.35
2023-01-25T03:26:27.555Z,15.05
2023-01-25T03:29:16.130Z,17.08
2023-01-25T03:31:46.252Z,11.40
2023-01-25T03:34:17.874Z,15.43
2023-01-25T03:36:45.595Z,12.60
2023-01-25T03:39:13.753Z,13.30
2023-01-25T03:41:47.039Z,14.55
2023-01-25T03:44:18.399Z,16.17
2023-01-25T03:46:48.089Z,14.90
2023-01-25T03:49:15.844Z,12.20
2023-01-25T03:51:43.563Z,14.43
2023-01-25T03:54:12.319Z,13.65
2023-01-25T03:56:40.988Z,14.02
2023-01-25T03:59:13.576Z,12.68
2023-01-25T04:01:42.701Z,15.48
2023-01-25T04:04:10.404Z,16.02
2023-01-25T04:06:42.920Z,16.63
2023-01-25T04:09:14.389Z,16.38
2023-01-25T04:11:53.310Z,16.30
2023-01-25T04:14:35.103Z,17.88
2023-01-25T04:17:10.896Z,17.85
2023-01-25T04:19:41.395Z,15.05
2023-01-25T04:22:13.603Z,14.90
2023-01-25T04:24:42.159Z,18.13
2023-01-25T04:27:10.308Z,16.52
2023-01-25T04:29:50.841Z,18.75
2023-01-25T04:32:22.538Z,18.92
2023-01-25T04:34:50.433Z,16.83
2023-01-25T04:37:22.221Z,16.13
2023-01-25T04:39:57.260Z,17.50
2023-01-25T04:42:25.729Z,20.02
2023-01-25T04:44:56.373Z,15.85
2023-01-25T04:47:28.215Z,19.23
2023-01-25T04:49:55.945Z,17.10
2023-01-25T04:52:34.902Z,21.13
2023-01-25T04:57:35.132Z,18.65
2023-01-25T05:00:03.605Z,17.10
2023-01-25T05:02:33.012Z,19.98
2023-01-25T05:05:00.773Z,24.48
2023-01-25T05:07:29.754Z,19.88
2023-01-25T05:09:57.483Z,19.85
2023-01-25T05:12:30.638Z,21.58
2023-01-25T05:15:05.123Z,22.48
2023-01-25T05:17:34.673Z,21.00
2023-01-25T05:20:02.400Z,19.52
2023-01-25T05:22:30.154Z,20.63
2023-01-25T05:24:59.092Z,23.77
2023-01-25T05:27:25.962Z,20.42
2023-01-25T05:29:57.704Z,20.27
2023-01-25T05:32:41.610Z,21.75
2023-01-25T05:35:21.291Z,22.83
2023-01-25T05:37:51.043Z,23.60
2023-01-25T05:40:23.527Z,22.13
2023-01-25T05:42:55.786Z,17.52
2023-01-25T05:45:27.136Z,20.42
2023-01-25T05:47:58.302Z,18.60
2023-01-25T05:50:27.486Z,23.02
2023-01-25T05:53:01.447Z,21.40
2023-01-25T05:55:30.546Z,18.02
2023-01-25T05:58:03.140Z,24.45
2023-01-25T06:00:33.071Z,21.02
2023-01-25T06:03:03.053Z,22.83
2023-01-25T06:05:35.537Z,20.63
2023-01-25T06:08:10.798Z,20.65
2023-01-25T06:10:47.480Z,28.48
2023-01-25T06:13:17.863Z,24.35
2023-01-25T06:15:55.586Z,22.45
2023-01-25T06:18:45.967Z,24.77
2023-01-25T06:21:37.334Z,25.50
2023-01-25T06:24:05.783Z,26.13
2023-01-25T06:26:33.534Z,27.55
2023-01-25T06:29:03.418Z,24.08
2023-01-25T06:31:45.130Z,23.90
2023-01-25T06:34:17.079Z,23.00
2023-01-25T06:36:44.883Z,27.30
2023-01-25T06:39:12.972Z,21.77
2023-01-25T06:41:42.823Z,21.35
2023-01-25T06:44:10.646Z,24.42
2023-01-25T06:46:38.420Z,22.08
2023-01-25T06:49:06.162Z,22.90
2023-01-25T06:51:35.263Z,21.63
2023-01-25T06:54:05.599Z,31.38
2023-01-25T06:56:33.766Z,23.38
2023-01-25T06:59:01.423Z,22.90
2023-01-25T07:01:30.359Z,28.90
2023-01-25T07:04:00.146Z,25.63
2023-01-25T07:06:33.545Z,26.83
2023-01-25T07:09:05.647Z,24.52
2023-01-25T07:11:35.747Z,25.83
2023-01-25T07:14:07.106Z,25.83
2023-01-25T07:16:38.575Z,30.98
2023-01-25T07:19:07.211Z,35.00
2023-01-25T07:21:34.939Z,39.38
2023-01-25T07:24:05.730Z,24.65
2023-01-25T07:26:33.805Z,30.65
2023-01-25T07:29:01.759Z,30.80
2023-01-25T07:31:30.005Z,25.85
2023-01-25T07:34:01.303Z,26.58
2023-01-25T07:36:29.083Z,30.02
2023-01-25T07:38:58.887Z,32.80
2023-01-25T07:41:28.541Z,28.17
2023-01-25T07:43:56.639Z,28.77
2023-01-25T07:46:46.342Z,28.67
2023-01-25T07:49:16.454Z,25.77
2023-01-25T07:51:44.213Z,26.48
2023-01-25T07:54:12.772Z,24.30
2023-01-25T07:56:43.027Z,27.75
2023-01-25T07:59:11.531Z,21.13
2023-01-25T08:01:40.597Z,28.65
2023-01-25T08:04:08.667Z,21.90
2023-01-25T08:06:38.824Z,32.53
2023-01-25T08:09:09.471Z,26.55
2023-01-25T08:11:39.303Z,30.63
2023-01-25T08:14:09.183Z,24.38
2023-01-25T08:16:36.851Z,31.55
2023-01-25T08:19:05.307Z,27.60
2023-01-25T08:21:34.479Z,26.40
2023-01-25T08:24:04.701Z,24.48
2023-01-25T08:26:32.691Z,28.88
2023-01-25T08:29:00.419Z,28.02
2023-01-25T08:31:35.188Z,26.58
2023-01-25T08:34:07.780Z,25.40
2023-01-25T08:36:35.438Z,29.05
2023-01-25T08:39:08.940Z,27.38
2023-01-25T08:41:37.216Z,21.95
2023-01-25T08:44:05.565Z,21.98
2023-01-25T08:46:36.070Z,26.15
2023-01-25T08:49:04.993Z,26.52
2023-01-25T08:51:34.107Z,23.92
2023-01-25T08:54:05.750Z,29.50
2023-01-25T08:56:35.553Z,33.22
2023-01-25T08:59:05.911Z,27.38
2023-01-25T09:01:40.231Z,33.78
2023-01-25T09:04:08.050Z,32.13
2023-01-25T09:06:35.713Z,28.20
2023-01-25T09:09:04.618Z,33.13
2023-01-25T09:11:37.044Z,27.48
2023-01-25T09:14:05.174Z,36.40
2023-01-25T09:16:32.964Z,33.70
2023-01-25T09:19:06.813Z,31.75
2023-01-25T09:21:36.995Z,30.88
2023-01-25T09:24:07.862Z,33.35
2023-01-25T09:26:40.832Z,32.08
2023-01-25T09:29:11.488Z,35.75
2023-01-25T09:31:43.698Z,31.05
2023-01-25T09:34:39.108Z,28.83
2023-01-25T09:37:06.877Z,25.77
2023-01-25T09:39:36.919Z,32.30
2023-01-25T09:42:24.224Z,34.50
2023-01-25T09:45:21.242Z,31.20
2023-01-25T09:48:02.097Z,32.85
2023-01-25T09:50:42.896Z,25.33
2023-01-25T09:53:24.278Z,29.08
2023-01-25T09:55:55.536Z,26.33
2023-01-25T09:58:28.971Z,23.48
2023-01-25T10:01:13.899Z,26.85
2023-01-25T10:03:48.765Z,30.10
2023-01-25T10:06:23.577Z,31.58
2023-01-25T10:08:59.711Z,29.58
2023-01-25T10:11:29.875Z,34.53
2023-01-25T10:13:58.583Z,32.40
2023-01-25T10:16:33.414Z,26.73
2023-01-25T10:19:15.276Z,29.50
2023-01-25T10:21:49.218Z,32.83
2023-01-25T10:24:40.707Z,30.65
2023-01-25T10:27:22.696Z,37.58
2023-01-25T10:29:55.084Z,33.53
2023-01-25T10:32:28.111Z,29.05
2023-01-25T10:34:59.171Z,29.55
2023-01-25T10:37:33.207Z,29.52
2023-01-25T10:40:05.534Z,26.27
2023-01-25T10:42:41.498Z,30.25
2023-01-25T10:45:13.054Z,31.77
2023-01-25T10:47:43.730Z,29.17
2023-01-25T10:50:46.320Z,30.33
2023-01-25T10:53:31.370Z,35.03
2023-01-25T10:56:19.182Z,28.38
2023-01-25T10:58:48.847Z,27.52
2023-01-25T11:01:28.489Z,29.40
2023-01-25T11:03:56.397Z,32.25
2023-01-25T11:06:35.647Z,32.05
2023-01-25T11:09:35.517Z,29.13
2023-01-25T11:12:05.755Z,27.85
2023-01-25T11:14:34.499Z,31.23
2023-01-25T11:17:05.770Z,33.75
2023-01-25T11:19:36.360Z,31.77
2023-01-25T11:22:07.334Z,29.90
2023-01-25T11:24:37.468Z,26.42
2023-01-25T11:27:18.819Z,31.05
2023-01-25T11:29:49.570Z,31.52
2023-01-25T11:32:24.967Z,28.92
2023-01-25T11:34:52.989Z,39.20
2023-01-25T11:37:34.112Z,29.60
2023-01-25T11:40:15.919Z,30.38
2023-01-25T11:42:58.475Z,33.92
2023-01-25T11:45:48.244Z,32.08
2023-01-25T11:48:32.711Z,30.83
2023-01-25T11:51:08.779Z,30.15
2023-01-25T11:53:51.216Z,23.83
2023-01-25T11:56:32.705Z,27.27
2023-01-25T11:59:17.764Z,29.17
2023-01-25T12:02:03.035Z,30.85
2023-01-25T12:04:45.025Z,27.85
2023-01-25T12:07:22.012Z,29.70
2023-01-25T12:10:05.095Z,32.13
2023-01-25T12:12:42.882Z,27.33
2023-01-25T12:15:25.962Z,28.80
2023-01-25T12:18:29.166Z,33.05
2023-01-25T12:21:08.097Z,30.40
2023-01-25T12:23:57.081Z,30.75
2023-01-25T12:26:29.267Z,35.13
2023-01-25T12:29:06.901Z,28.15
2023-01-25T12:31:44.846Z,27.98
2023-01-25T12:34:19.259Z,32.80
2023-01-25T12:36:49.506Z,23.95
2023-01-25T12:39:24.344Z,27.02
2023-01-25T12:41:57.122Z,28.67
2023-01-25T12:44:28.699Z,30.02
2023-01-25T12:47:03.584Z,29.30
2023-01-25T12:49:40.113Z,27.98
2023-01-25T12:52:21.476Z,26.17
2023-01-25T12:54:49.455Z,31.15
2023-01-25T12:57:22.752Z,26.88
2023-01-25T13:00:00.513Z,31.38
2023-01-25T13:02:51.752Z,37.70
2023-01-25T13:05:33.841Z,27.17
2023-01-25T13:08:15.852Z,28.38
2023-01-25T13:10:59.319Z,29.88
2023-01-25T13:13:28.799Z,26.13
2023-01-25T13:15:57.861Z,25.35
2023-01-25T13:18:41.879Z,26.73
2023-01-25T13:21:12.795Z,29.50
2023-01-25T13:23:47.157Z,24.63
2023-01-25T13:26:48.469Z,29.15
2023-01-25T13:29:51.802Z,34.35
2023-01-25T13:32:55.480Z,35.00
2023-01-25T13:35:41.156Z,35.42
2023-01-25T13:38:36.699Z,40.70
2023-01-25T13:41:17.283Z,33.67
2023-01-25T13:43:48.984Z,29.08
2023-01-25T13:46:20.455Z,31.70
2023-01-25T13:48:56.377Z,36.17
2023-01-25T13:51:27.915Z,31.75
2023-01-25T13:54:00.511Z,27.45
2023-01-25T13:56:41.664Z,29.95
2023-01-25T13:59:24.856Z,24.52
2023-01-25T14:01:52.772Z,24.17
2023-01-25T14:04:26.677Z,23.05
2023-01-25T14:07:00.430Z,28.52
2023-01-25T14:09:28.730Z,24.05
2023-01-25T14:11:58.872Z,27.10
2023-01-25T14:14:28.873Z,26.83
2023-01-25T14:19:44.185Z,31.20
2023-01-25T14:22:22.173Z,26.95
2023-01-25T14:25:18.279Z,32.17
2023-01-25T14:30:20.235Z,28.65
2023-01-25T14:32:51.350Z,28.42
2023-01-25T14:35:54.366Z,30.75
2023-01-25T14:38:34.426Z,31.88
2023-01-25T14:41:13.288Z,30.85
2023-01-25T14:43:45.251Z,26.10
2023-01-25T14:46:24.945Z,35.30
2023-01-25T14:48:54.956Z,37.08
2023-01-25T14:51:42.171Z,35.13
2023-01-25T14:54:31.855Z,29.85
2023-01-25T14:57:01.710Z,31.67
2023-01-25T14:59:38.267Z,28.33
2023-01-25T15:04:58.025Z,26.55
2023-01-25T15:07:39.010Z,28.90
2023-01-25T15:10:18.298Z,26.83
2023-01-25T15:13:11.627Z,26.73
2023-01-25T15:15:51.730Z,28.02
2023-01-25T15:18:43.994Z,28.33
2023-01-25T15:21:13.379Z,22.58
2023-01-25T15:23:42.451Z,23.95
2023-01-25T15:26:21.608Z,28.35
2023-01-25T15:28:49.949Z,21.65
2023-01-25T15:31:19.114Z,32.40
2023-01-25T15:33:47.018Z,31.75
2023-01-25T15:36:16.908Z,29.05
2023-01-25T15:38:44.662Z,35.85
2023-01-25T15:41:13.685Z,32.97
2023-01-25T15:43:43.048Z,34.58
2023-01-25T15:46:17.285Z,31.00
2023-01-25T15:48:47.695Z,29.25
2023-01-25T15:51:15.452Z,24.27
2023-01-25T15:53:43.274Z,25.80
2023-01-25T15:56:16.289Z,29.55
2023-01-25T15:58:48.704Z,29.85
2023-01-25T16:01:16.610Z,29.60
2023-01-25T16:03:44.457Z,28.58
2023-01-25T16:06:29.577Z,31.83
2023-01-25T16:08:58.671Z,33.10
2023-01-25T16:11:26.456Z,38.45
2023-01-25T16:13:56.859Z,41.50
2023-01-25T16:16:27.905Z,44.97
2023-01-25T16:18:56.000Z,39.28
2023-01-25T16:21:23.653Z,46.15
2023-01-25T16:23:51.443Z,47.70
2023-01-25T16:26:23.761Z,47.97
2023-01-25T16:28:53.853Z,48.22
2023-01-25T16:31:32.353Z,53.33
2023-01-25T16:34:01.465Z,52.08
2023-01-25T16:36:29.534Z,57.78
2023-01-25T16:38:57.219Z,52.17
2023-01-25T16:41:25.059Z,54.17
2023-01-25T16:43:57.727Z,55.35
2023-01-25T16:46:27.229Z,62.10
2023-01-25T16:49:00.170Z,58.47
2023-01-25T16:51:32.863Z,60.08
2023-01-25T16:54:00.673Z,70.32
2023-01-25T16:56:30.309Z,64.18
2023-01-25T16:59:01.816Z,56.40
2023-01-25T17:01:31.442Z,60.28
2023-01-25T17:04:08.372Z,69.63
2023-01-25T17:06:37.830Z,58.03
2023-01-25T17:09:21.528Z,50.40
2023-01-25T17:11:52.968Z,53.60
2023-01-25T17:14:21.297Z,56.95
2023-01-25T17:16:51.758Z,67.18
2023-01-25T17:19:20.608Z,65.43
2023-01-25T17:21:48.772Z,63.10
2023-01-25T17:24:18.796Z,66.65
2023-01-25T17:26:46.696Z,63.08
2023-01-25T17:29:14.618Z,77.95
2023-01-25T17:31:44.024Z,81.40
2023-01-25T17:34:19.260Z,87.10
2023-01-25T17:36:47.462Z,85.03
2023-01-25T17:39:17.031Z,78.43
2023-01-25T17:41:45.540Z,86.35
2023-01-25T17:44:14.028Z,85.10
2023-01-25T17:46:41.783Z,83.72
2023-01-25T17:49:16.573Z,88.22
2023-01-25T17:51:44.421Z,85.03
2023-01-25T17:54:13.571Z,92.18
2023-01-25T17:56:41.450Z,98.82
2023-01-25T17:59:11.386Z,95.93
2023-01-25T18:01:42.460Z,92.55
2023-01-25T18:04:13.224Z,87.93
2023-01-25T18:06:42.468Z,93.10
2023-01-25T18:09:10.556Z,95.50
2023-01-25T18:11:41.213Z,96.78
2023-01-25T18:14:12.565Z,106.13
2023-01-25T18:16:41.724Z,98.93
2023-01-25T18:19:15.096Z,94.03
2023-01-25T18:21:44.595Z,88.63
2023-01-25T18:24:31.896Z,90.55
2023-01-25T18:27:06.487Z,84.00
2023-01-25T18:29:47.803Z,88.85
2023-01-25T18:32:16.558Z,80.35
2023-01-25T18:34:44.355Z,100.88
2023-01-25T18:37:20.615Z,88.13
2023-01-25T18:39:55.902Z,96.00
2023-01-25T18:42:25.558Z,103.72
2023-01-25T18:44:53.304Z,97.50
2023-01-25T18:47:22.845Z,94.68
2023-01-25T18:49:52.404Z,95.82
2023-01-25T18:52:22.892Z,96.57
2023-01-25T18:54:54.472Z,88.13
2023-01-25T18:57:22.265Z,94.45
2023-01-25T18:59:50.100Z,96.82
2023-01-25T19:02:18.639Z,87.20
2023-01-25T19:04:46.458Z,87.57
2023-01-25T19:07:14.670Z,97.63
2023-01-25T19:09:44.476Z,100.72
2023-01-25T19:12:12.430Z,95.70
2023-01-25T19:14:40.100Z,86.97
2023-01-25T19:17:09.223Z,97.10
2023-01-25T19:19:36.919Z,97.90
2023-01-25T19:22:05.961Z,95.85
2023-01-25T19:24:33.686Z,93.78
2023-01-25T19:27:02.816Z,100.05
2023-01-25T19:32:06.706Z,83.63
2023-01-25T19:34:34.563Z,93.15
2023-01-25T19:37:02.288Z,91.15
2023-01-25T19:39:30.262Z,88.63
2023-01-25T19:41:58.025Z,81.10
2023-01-25T19:44:27.336Z,77.80
2023-01-25T19:46:55.051Z,71.15
2023-01-25T19:49:23.380Z,71.40
2023-01-25T19:51:53.061Z,78.95
2023-01-25T19:54:21.749Z,73.93
2023-01-25T19:56:50.434Z,72.32
2023-01-25T19:59:19.959Z,76.65
2023-01-25T20:01:49.362Z,85.78
2023-01-25T20:04:20.581Z,80.32
2023-01-25T20:06:51.750Z,79.60
2023-01-25T20:09:28.421Z,71.93
2023-01-25T20:11:57.044Z,84.72
2023-01-25T20:14:27.278Z,82.97
2023-01-25T20:16:57.948Z,74.53
2023-01-25T20:19:30.795Z,75.15
2023-01-25T20:22:00.398Z,75.70
2023-01-25T20:24:31.064Z,73.97
2023-01-25T20:26:59.561Z,67.65
2023-01-25T20:29:28.735Z,69.72
2023-01-25T20:31:57.895Z,81.93
2023-01-25T20:34:26.849Z,76.40
2023-01-25T20:36:54.551Z,74.13
2023-01-25T20:39:23.093Z,74.93
2023-01-25T20:41:56.598Z,74.88
2023-01-25T20:44:24.320Z,85.95
2023-01-25T20:46:52.855Z,85.32
2023-01-25T20:49:22.021Z,79.45
2023-01-25T20:51:49.786Z,83.90
2023-01-25T20:54:18.161Z,71.85
2023-01-25T20:56:47.763Z,75.20
2023-01-25T20:59:16.529Z,77.63
2023-01-25T21:01:46.640Z,71.95
2023-01-25T21:04:14.536Z,71.05
2023-01-25T21:06:46.145Z,73.60
2023-01-25T21:09:13.924Z,74.97
2023-01-25T21:11:46.332Z,72.43
2023-01-25T21:14:16.724Z,73.40
2023-01-25T21:16:44.466Z,70.75
2023-01-25T21:19:12.231Z,77.15
2023-01-25T21:21:41.436Z,71.25
2023-01-25T21:24:11.791Z,71.30
2023-01-25T21:26:42.192Z,70.88
2023-01-25T21:29:10.047Z,73.70
2023-01-25T21:31:42.961Z,76.35
2023-01-25T21:34:12.395Z,68.35
2023-01-25T21:36:40.130Z,75.70
2023-01-25T21:39:08.048Z,77.60
2023-01-25T21:41:37.188Z,74.47
2023-01-25T21:44:22.887Z,75.05
2023-01-25T21:49:55.971Z,73.60
2023-01-25T21:52:23.780Z,74.50
2023-01-25T21:54:51.580Z,81.47
2023-01-25T21:57:21.060Z,82.00
2023-01-25T21:59:48.898Z,74.57
2023-01-25T22:02:17.818Z,70.10
2023-01-25T22:04:47.259Z,85.45
2023-01-25T22:07:15.025Z,82.82
2023-01-25T22:09:42.788Z,85.18
2023-01-25T22:12:12.218Z,81.13
2023-01-25T22:14:41.541Z,85.90
2023-01-25T22:17:11.452Z,85.50
2023-01-25T22:19:47.826Z,85.60
2023-01-25T22:22:18.187Z,76.18
2023-01-25T22:24:47.498Z,78.05
2023-01-25T22:27:37.897Z,81.13
2023-01-25T22:30:13.026Z,87.32
2023-01-25T22:32:40.881Z,84.88
2023-01-25T22:35:14.045Z,78.00
2023-01-25T22:37:43.912Z,83.65
2023-01-25T22:40:14.286Z,82.53
2023-01-25T22:42:51.598Z,74.18
2023-01-25T22:45:20.763Z,87.93
2023-01-25T22:47:50.592Z,82.38
2023-01-25T22:50:18.475Z,80.60
2023-01-25T22:52:46.203Z,80.75
2023-01-25T22:55:13.969Z,81.85
2023-01-25T22:57:43.956Z,82.05
2023-01-25T23:00:18.056Z,80.00
2023-01-25T23:02:47.170Z,79.22
2023-01-25T23:05:15.134Z,68.53
2023-01-25T23:07:45.039Z,81.35
2023-01-25T23:10:16.346Z,85.78
2023-01-25T23:12:44.219Z,82.35
2023-01-25T23:15:15.398Z,87.80
2023-01-25T23:18:00.813Z,78.72
2023-01-25T23:20:30.842Z,76.97
2023-01-25T23:22:58.537Z,87.55
2023-01-25T23:25:26.313Z,89.30
2023-01-25T23:27:54.167Z,82.50
2023-01-25T23:30:24.076Z,87.55
2023-01-25T23:32:51.943Z,73.45
2023-01-25T23:35:20.398Z,77.10
2023-01-25T23:37:49.525Z,88.32
2023-01-25T23:40:17.528Z,71.22
2023-01-25T23:42:45.272Z,84.38
2023-01-25T23:45:13.013Z,74.55
2023-01-25T23:47:50.611Z,73.20
2023-01-25T23:50:18.663Z,91.05
2023-01-25T23:52:48.635Z,79.25
2023-01-25T23:55:19.081Z,80.90
2023-01-25T23:57:46.773Z,84.47
